createdAt,value
2023-01-04T00:01:53.437Z,73.51
2023-01-04T00:04:20.126Z,73.49
2023-01-04T00:06:46.857Z,73.21
2023-01-04T00:09:13.565Z,73.73
2023-01-04T00:11:40.295Z,74.05
2023-01-04T00:14:07.064Z,75.41
2023-01-04T00:16:33.837Z,76.54
2023-01-04T00:19:00.570Z,76.54
2023-01-04T00:21:30.881Z,76.89
2023-01-04T00:23:59.687Z,76.76
2023-01-04T00:26:31.496Z,75.91
2023-01-04T00:29:01.339Z,75.68
2023-01-04T00:31:28.687Z,76.04
2023-01-04T00:33:56.707Z,76.89
2023-01-04T00:36:23.690Z,77.48
2023-01-04T00:39:08.147Z,77.42
2023-01-04T00:41:57.977Z,76.53
2023-01-04T00:44:24.036Z,76.84
2023-01-04T00:46:50.843Z,76.91
2023-01-04T00:49:17.568Z,76.54
2023-01-04T00:51:44.302Z,76.35
2023-01-04T00:54:13.895Z,76.58
2023-01-04T00:56:40.567Z,76.98
2023-01-04T00:59:07.325Z,76.92
2023-01-04T01:01:35.079Z,76.78
2023-01-04T01:04:03.634Z,77.83
2023-01-04T01:06:31.530Z,77.82
2023-01-04T01:08:58.332Z,77.50
2023-01-04T01:11:25.626Z,77.60
2023-01-04T01:13:52.742Z,77.30
2023-01-04T01:16:44.452Z,77.00
2023-01-04T01:19:08.868Z,77.92
2023-01-04T01:21:35.662Z,77.73
2023-01-04T01:24:02.339Z,77.89
2023-01-04T01:26:29.039Z,77.26
2023-01-04T01:28:55.927Z,76.95
2023-01-04T01:31:24.854Z,76.84
2023-01-04T01:33:53.334Z,76.86
2023-01-04T01:36:21.995Z,76.56
2023-01-04T01:38:48.981Z,76.45
2023-01-04T01:41:24.640Z,76.34
2023-01-04T01:44:02.346Z,76.14
2023-01-04T01:46:47.596Z,75.70
2023-01-04T01:49:46.797Z,75.87
2023-01-04T01:52:18.971Z,76.48
2023-01-04T01:54:47.912Z,76.05
2023-01-04T01:57:18.938Z,76.12
2023-01-04T01:59:48.150Z,76.36
2023-01-04T02:02:15.089Z,75.68
2023-01-04T02:04:43.811Z,75.38
2023-01-04T02:07:12.404Z,75.76
2023-01-04T02:09:40.104Z,76.90
2023-01-04T02:12:11.640Z,76.83
2023-01-04T02:14:38.635Z,75.90
2023-01-04T02:17:16.150Z,76.52
2023-01-04T02:20:12.353Z,76.85
2023-01-04T02:22:55.922Z,76.28
2023-01-04T02:25:51.660Z,76.23
2023-01-04T02:28:30.527Z,76.49
2023-01-04T02:31:16.112Z,76.70
2023-01-04T02:33:54.718Z,76.12
2023-01-04T02:36:33.960Z,77.97
2023-01-04T02:39:08.852Z,76.73
2023-01-04T02:41:41.843Z,76.60
2023-01-04T02:44:55.871Z,76.32
2023-01-04T02:47:44.781Z,75.83
2023-01-04T02:50:34.213Z,74.89
2023-01-04T02:53:13.455Z,75.37
2023-01-04T02:55:45.357Z,75.81
2023-01-04T02:58:29.592Z,76.07
2023-01-04T03:01:24.347Z,76.03
2023-01-04T03:04:21.709Z,76.13
2023-01-04T03:06:58.840Z,76.99
2023-01-04T03:09:29.750Z,76.61
2023-01-04T03:12:19.082Z,75.77
2023-01-04T03:14:52.471Z,75.60
2023-01-04T03:17:21.535Z,76.01
2023-01-04T03:19:51.729Z,76.52
2023-01-04T03:22:50.870Z,76.27
2023-01-04T03:25:39.440Z,76.77
2023-01-04T03:28:25.729Z,75.97
2023-01-04T03:31:15.596Z,76.79
2023-01-04T03:34:01.543Z,77.25
2023-01-04T03:36:41.421Z,76.85
2023-01-04T03:39:37.348Z,76.32
2023-01-04T03:43:00.438Z,78.93
2023-01-04T03:45:50.146Z,78.38
2023-01-04T03:48:34.781Z,77.55
2023-01-04T03:51:06.374Z,77.54
2023-01-04T03:53:36.179Z,77.37
2023-01-04T03:56:03.398Z,77.39
2023-01-04T03:58:30.078Z,77.18
2023-01-04T04:01:03.613Z,77.23
2023-01-04T04:03:50.184Z,78.15
2023-01-04T04:06:35.654Z,76.83
2023-01-04T04:09:02.687Z,77.07
2023-01-04T04:11:32.313Z,76.50
2023-01-04T04:14:00.175Z,77.09
2023-01-04T04:16:27.609Z,78.56
2023-01-04T04:18:54.581Z,77.35
2023-01-04T04:21:21.322Z,77.13
2023-01-04T04:23:48.114Z,77.47
2023-01-04T04:26:15.198Z,77.76
2023-01-04T04:28:42.671Z,78.08
2023-01-04T04:31:09.603Z,76.92
2023-01-04T04:33:36.338Z,77.61
2023-01-04T04:36:03.114Z,77.65
2023-01-04T04:38:29.807Z,77.76
2023-01-04T04:41:15.194Z,77.51
2023-01-04T04:43:41.887Z,77.12
2023-01-04T04:46:08.736Z,77.52
2023-01-04T04:48:35.534Z,76.43
2023-01-04T04:51:02.283Z,77.76
2023-01-04T04:53:29.001Z,77.23
2023-01-04T04:55:55.735Z,77.17
2023-01-04T04:58:23.330Z,77.33
2023-01-04T05:00:50.048Z,76.88
2023-01-04T05:03:16.788Z,76.79
2023-01-04T05:05:43.502Z,77.43
2023-01-04T05:08:10.342Z,77.00
2023-01-04T05:10:38.411Z,77.71
2023-01-04T05:13:06.509Z,77.10
2023-01-04T05:15:52.915Z,76.13
2023-01-04T05:18:20.947Z,75.92
2023-01-04T05:20:48.632Z,76.62
2023-01-04T05:23:17.061Z,76.83
2023-01-04T05:25:43.831Z,76.79
2023-01-04T05:28:11.032Z,76.81
2023-01-04T05:30:57.278Z,77.44
2023-01-04T05:33:28.887Z,77.17
2023-01-04T05:35:57.206Z,76.75
2023-01-04T05:38:24.365Z,76.71
2023-01-04T05:40:51.748Z,75.62
2023-01-04T05:43:20.190Z,75.63
2023-01-04T05:45:52.429Z,76.06
2023-01-04T05:48:19.352Z,75.72
2023-01-04T05:50:46.101Z,75.96
2023-01-04T05:53:14.182Z,76.13
2023-01-04T05:55:40.931Z,76.63
2023-01-04T05:58:07.824Z,76.01
2023-01-04T06:00:34.546Z,75.51
2023-01-04T06:03:01.521Z,75.60
2023-01-04T06:05:28.387Z,75.42
2023-01-04T06:07:55.108Z,75.71
2023-01-04T06:10:21.848Z,75.14
2023-01-04T06:12:48.651Z,75.73
2023-01-04T06:15:15.687Z,75.01
2023-01-04T06:17:42.547Z,74.35
2023-01-04T06:20:10.350Z,74.21
2023-01-04T06:22:37.123Z,74.80
2023-01-04T06:25:04.762Z,75.46
2023-01-04T06:27:31.557Z,75.83
2023-01-04T06:29:58.509Z,75.06
2023-01-04T06:32:25.394Z,74.99
2023-01-04T06:34:52.119Z,74.28
2023-01-04T06:37:21.587Z,74.86
2023-01-04T06:39:48.415Z,74.19
2023-01-04T06:42:33.900Z,74.44
2023-01-04T06:45:00.621Z,73.46
2023-01-04T06:47:27.391Z,73.85
2023-01-04T06:49:54.176Z,73.92
2023-01-04T06:52:20.949Z,72.84
2023-01-04T06:54:47.764Z,73.78
2023-01-04T06:57:14.767Z,73.83
2023-01-04T06:59:41.575Z,73.95
2023-01-04T07:02:08.481Z,73.49
2023-01-04T07:04:35.436Z,73.33
2023-01-04T07:07:02.382Z,73.32
2023-01-04T07:09:29.282Z,74.50
2023-01-04T07:11:58.001Z,74.21
2023-01-04T07:14:24.823Z,74.59
2023-01-04T07:16:51.692Z,75.46
2023-01-04T07:19:18.563Z,76.23
2023-01-04T07:21:45.249Z,77.05
2023-01-04T07:24:12.105Z,78.03
2023-01-04T07:26:38.985Z,77.96
2023-01-04T07:29:14.878Z,77.89
2023-01-04T07:31:42.163Z,78.91
2023-01-04T07:34:08.952Z,79.01
2023-01-04T07:36:35.655Z,79.70
2023-01-04T07:39:03.291Z,80.48
2023-01-04T07:41:30.152Z,81.16
2023-01-04T07:43:56.881Z,81.29
2023-01-04T07:46:23.784Z,81.53
2023-01-04T07:48:50.517Z,82.02
2023-01-04T07:51:17.261Z,82.70
2023-01-04T07:53:44.058Z,82.41
2023-01-04T07:56:15.302Z,82.63
2023-01-04T07:58:45.414Z,83.64
2023-01-04T08:01:14.829Z,83.73
2023-01-04T08:03:42.119Z,83.23
2023-01-04T08:06:11.246Z,83.79
2023-01-04T08:08:38.173Z,83.94
2023-01-04T08:11:12.741Z,84.69
2023-01-04T08:13:39.410Z,84.80
2023-01-04T08:16:06.894Z,85.45
2023-01-04T08:18:33.759Z,85.12
2023-01-04T08:21:08.558Z,85.32
2023-01-04T08:23:36.636Z,85.67
2023-01-04T08:26:05.720Z,86.26
2023-01-04T08:28:33.118Z,87.04
2023-01-04T08:31:05.648Z,87.07
2023-01-04T08:33:32.713Z,87.50
2023-01-04T08:36:12.811Z,87.43
2023-01-04T08:44:13.600Z,87.21
2023-01-04T08:46:40.309Z,88.25
2023-01-04T08:49:07.187Z,87.19
2023-01-04T08:51:33.856Z,87.55
2023-01-04T08:54:00.624Z,87.62
2023-01-04T08:56:27.577Z,87.69
2023-01-04T08:58:54.475Z,87.60
2023-01-04T09:01:21.226Z,87.91
2023-01-04T09:03:48.213Z,87.46
2023-01-04T09:06:15.947Z,88.20
2023-01-04T09:08:43.704Z,88.33
2023-01-04T09:11:15.981Z,88.70
2023-01-04T09:13:43.637Z,88.45
2023-01-04T09:16:15.907Z,88.74
2023-01-04T09:18:43.395Z,88.71
2023-01-04T09:21:12.772Z,88.86
2023-01-04T09:23:40.020Z,88.71
2023-01-04T09:26:12.640Z,89.04
2023-01-04T09:28:40.749Z,89.16
2023-01-04T09:31:13.217Z,89.23
2023-01-04T09:34:12.874Z,88.44
2023-01-04T09:36:26.862Z,88.64
2023-01-04T09:38:53.614Z,88.56
2023-01-04T09:41:32.814Z,89.01
2023-01-04T09:44:05.171Z,89.13
2023-01-04T09:46:45.876Z,88.91
2023-01-04T09:49:18.474Z,89.01
2023-01-04T09:51:57.052Z,89.18
2023-01-04T09:57:20.180Z,88.62
2023-01-04T09:59:47.649Z,89.20
2023-01-04T10:02:21.861Z,89.36
2023-01-04T10:04:50.443Z,89.14
2023-01-04T10:07:31.834Z,88.49
2023-01-04T10:09:58.776Z,88.83
2023-01-04T10:12:47.548Z,89.63
2023-01-04T10:15:38.015Z,89.53
2023-01-04T10:19:51.041Z,89.97
2023-01-04T10:21:46.669Z,90.40
2023-01-04T10:24:32.294Z,90.58
2023-01-04T10:27:09.194Z,89.66
2023-01-04T10:30:00.432Z,88.80
2023-01-04T10:32:44.433Z,89.17
2023-01-04T10:35:17.326Z,89.13
2023-01-04T10:37:45.311Z,88.77
2023-01-04T10:40:16.775Z,89.04
2023-01-04T10:43:03.232Z,89.63
2023-01-04T10:45:47.071Z,89.31
2023-01-04T10:48:38.995Z,89.67
2023-01-04T10:51:10.301Z,89.15
2023-01-04T10:53:47.461Z,89.33
2023-01-04T10:56:23.605Z,89.11
2023-01-04T10:58:55.460Z,88.83
2023-01-04T11:01:31.498Z,89.03
2023-01-04T11:04:15.643Z,88.36
2023-01-04T11:06:48.343Z,89.02
2023-01-04T11:09:25.703Z,89.11
2023-01-04T11:11:55.458Z,88.58
2023-01-04T11:14:22.497Z,89.07
2023-01-04T11:16:51.148Z,88.53
2023-01-04T11:19:18.075Z,88.51
2023-01-04T11:21:57.253Z,88.36
2023-01-04T11:24:32.517Z,88.43
2023-01-04T11:27:06.112Z,87.19
2023-01-04T11:29:46.745Z,88.74
2023-01-04T11:33:03.161Z,88.30
2023-01-04T11:35:44.637Z,88.54
2023-01-04T11:38:20.469Z,88.18
2023-01-04T11:41:08.582Z,88.01
2023-01-04T11:43:37.135Z,87.77
2023-01-04T11:46:06.112Z,88.76
2023-01-04T11:48:34.431Z,89.12
2023-01-04T11:51:01.630Z,88.45
2023-01-04T11:53:29.707Z,88.03
2023-01-04T11:56:22.512Z,88.93
2023-01-04T11:59:09.912Z,89.26
2023-01-04T12:01:48.217Z,89.24
2023-01-04T12:04:27.499Z,88.95
2023-01-04T12:06:58.419Z,88.98
2023-01-04T12:09:25.265Z,90.16
2023-01-04T12:12:08.678Z,89.43
2023-01-04T12:14:40.997Z,89.15
2023-01-04T12:17:19.601Z,88.38
2023-01-04T12:19:47.000Z,87.97
2023-01-04T12:22:34.228Z,88.68
2023-01-04T12:25:02.080Z,88.97
2023-01-04T12:27:29.300Z,88.70
2023-01-04T12:29:59.328Z,87.70
2023-01-04T12:32:26.183Z,88.36
2023-01-04T12:34:53.248Z,88.59
2023-01-04T12:37:38.400Z,89.08
2023-01-04T12:40:43.831Z,88.52
2023-01-04T12:43:16.718Z,88.64
2023-01-04T12:45:48.681Z,88.08
2023-01-04T12:48:46.378Z,88.76
2023-01-04T12:51:33.247Z,89.06
2023-01-04T12:54:05.755Z,89.22
2023-01-04T12:57:10.600Z,89.71
2023-01-04T12:59:58.947Z,89.41
2023-01-04T13:02:52.126Z,90.05
2023-01-04T13:06:21.079Z,89.34
2023-01-04T13:08:12.143Z,89.68
2023-01-04T13:10:45.074Z,89.35
2023-01-04T13:13:36.579Z,89.79
2023-01-04T13:16:41.046Z,89.74
2023-01-04T13:19:22.399Z,89.68
2023-01-04T13:21:51.489Z,89.64
2023-01-04T13:24:27.364Z,88.96
2023-01-04T13:26:55.108Z,89.76
2023-01-04T13:29:25.630Z,89.42
2023-01-04T13:32:03.400Z,89.56
2023-01-04T13:34:39.233Z,90.31
2023-01-04T13:37:11.603Z,89.18
2023-01-04T13:39:50.064Z,90.57
2023-01-04T13:42:30.563Z,88.94
2023-01-04T13:45:22.452Z,88.79
2023-01-04T13:47:56.894Z,88.87
2023-01-04T13:50:29.734Z,90.18
2023-01-04T13:53:06.349Z,90.46
2023-01-04T13:55:36.590Z,90.71
2023-01-04T13:58:15.944Z,89.73
2023-01-04T14:01:01.124Z,89.22
2023-01-04T14:03:37.868Z,89.51
2023-01-04T14:06:10.685Z,88.89
2023-01-04T14:08:40.735Z,88.86
2023-01-04T14:11:40.786Z,89.96
2023-01-04T14:14:23.271Z,89.51
2023-01-04T14:16:51.186Z,90.67
2023-01-04T14:19:44.501Z,89.35
2023-01-04T14:22:23.487Z,89.64
2023-01-04T14:25:09.135Z,89.93
2023-01-04T14:27:39.320Z,90.49
2023-01-04T14:30:22.707Z,89.87
2023-01-04T14:32:55.528Z,90.14
2023-01-04T14:35:22.668Z,90.41
2023-01-04T14:37:50.177Z,90.58
2023-01-04T14:40:27.000Z,90.16
2023-01-04T14:42:54.557Z,89.42
2023-01-04T14:45:21.262Z,90.24
2023-01-04T14:47:48.069Z,90.67
2023-01-04T14:50:16.041Z,90.83
2023-01-04T14:52:42.997Z,90.35
2023-01-04T14:55:12.512Z,89.28
2023-01-04T14:57:43.576Z,90.16
2023-01-04T15:00:18.796Z,90.28
2023-01-04T15:02:50.771Z,88.74
2023-01-04T15:05:20.522Z,90.07
2023-01-04T15:07:47.617Z,89.57
2023-01-04T15:10:32.504Z,89.28
2023-01-04T15:13:00.866Z,88.96
2023-01-04T15:15:27.787Z,89.17
2023-01-04T15:17:54.575Z,89.70
2023-01-04T15:20:21.713Z,88.56
2023-01-04T15:22:48.426Z,88.80
2023-01-04T15:25:15.170Z,88.51
2023-01-04T15:27:42.898Z,89.16
2023-01-04T15:30:12.314Z,88.93
2023-01-04T15:32:40.080Z,87.94
2023-01-04T15:35:07.187Z,87.52
2023-01-04T15:37:33.859Z,87.37
2023-01-04T15:40:03.175Z,87.91
2023-01-04T15:42:48.889Z,88.16
2023-01-04T15:45:15.945Z,87.80
2023-01-04T15:47:42.723Z,88.30
2023-01-04T15:50:09.569Z,88.78
2023-01-04T15:52:36.270Z,88.06
2023-01-04T15:55:03.318Z,87.90
2023-01-04T15:57:30.296Z,88.39
2023-01-04T15:59:57.042Z,87.37
2023-01-04T16:02:24.084Z,87.71
2023-01-04T16:04:51.084Z,87.75
2023-01-04T16:07:18.223Z,87.44
2023-01-04T16:09:45.136Z,88.00
2023-01-04T16:12:30.620Z,87.29
2023-01-04T16:14:57.385Z,87.28
2023-01-04T16:17:25.391Z,87.50
2023-01-04T16:19:52.256Z,87.57
2023-01-04T16:22:18.947Z,88.70
2023-01-04T16:25:09.864Z,87.85
2023-01-04T16:27:35.465Z,87.44
2023-01-04T16:30:04.060Z,87.21
2023-01-04T16:32:31.396Z,87.38
2023-01-04T16:34:59.808Z,87.15
2023-01-04T16:37:28.263Z,86.85
2023-01-04T16:40:10.658Z,86.60
2023-01-04T16:42:38.952Z,86.36
2023-01-04T16:45:07.021Z,86.31
2023-01-04T16:47:41.826Z,86.26
2023-01-04T16:50:10.000Z,86.04
2023-01-04T16:52:37.071Z,86.36
2023-01-04T16:55:04.603Z,86.61
2023-01-04T16:57:31.761Z,86.59
2023-01-04T16:59:58.626Z,86.31
2023-01-04T17:02:25.683Z,84.75
2023-01-04T17:04:59.722Z,85.08
2023-01-04T17:07:33.261Z,84.81
2023-01-04T17:10:01.349Z,84.02
2023-01-04T17:15:41.900Z,83.71
2023-01-04T17:18:01.812Z,84.17
2023-01-04T17:20:28.666Z,84.34
2023-01-04T17:22:55.549Z,84.60
2023-01-04T17:25:22.450Z,83.39
2023-01-04T17:27:49.387Z,84.35
2023-01-04T17:30:16.309Z,83.88
2023-01-04T17:32:43.166Z,83.90
2023-01-04T17:35:10.048Z,84.54
2023-01-04T17:37:36.962Z,84.15
2023-01-04T17:40:04.109Z,83.90
2023-01-04T17:42:33.444Z,84.10
2023-01-04T17:45:00.204Z,82.78
2023-01-04T17:47:27.875Z,82.34
2023-01-04T17:49:54.774Z,82.77
2023-01-04T17:52:30.438Z,83.30
2023-01-04T17:55:01.627Z,83.06
2023-01-04T17:57:33.083Z,82.15
2023-01-04T18:00:00.109Z,82.57
2023-01-04T18:02:26.898Z,83.30
2023-01-04T18:04:55.053Z,82.48
2023-01-04T18:07:25.477Z,81.23
2023-01-04T18:09:53.035Z,81.94
2023-01-04T18:12:20.395Z,81.65
2023-01-04T18:14:47.572Z,82.29
2023-01-04T18:17:14.475Z,81.21
2023-01-04T18:19:44.548Z,81.21
2023-01-04T18:22:13.281Z,81.50
2023-01-04T18:24:40.169Z,81.64
2023-01-04T18:27:25.690Z,81.43
2023-01-04T18:29:53.830Z,81.58
2023-01-04T18:32:22.563Z,80.98
2023-01-04T18:34:49.512Z,80.21
2023-01-04T18:37:18.560Z,80.36
2023-01-04T18:39:46.894Z,80.66
2023-01-04T18:42:13.762Z,80.09
2023-01-04T18:44:46.055Z,79.27
2023-01-04T18:47:15.671Z,79.53
2023-01-04T18:49:42.443Z,79.31
2023-01-04T18:52:09.427Z,80.13
2023-01-04T18:54:36.200Z,79.40
2023-01-04T18:57:05.361Z,78.94
2023-01-04T18:59:32.549Z,78.76
2023-01-04T19:02:01.815Z,78.75
2023-01-04T19:04:32.868Z,79.34
2023-01-04T19:07:00.164Z,79.05
2023-01-04T19:09:27.159Z,79.89
2023-01-04T19:11:54.169Z,79.38
2023-01-04T19:14:20.930Z,79.58
2023-01-04T19:16:49.311Z,79.94
2023-01-04T19:19:16.493Z,78.51
2023-01-04T19:21:43.332Z,79.04
2023-01-04T19:24:10.163Z,79.30
2023-01-04T19:26:37.145Z,80.04
2023-01-04T19:29:04.697Z,79.13
2023-01-04T19:31:31.727Z,78.98
2023-01-04T19:33:58.490Z,79.43
2023-01-04T19:36:25.265Z,79.31
2023-01-04T19:38:52.182Z,79.05
2023-01-04T19:41:27.701Z,78.41
2023-01-04T19:43:59.769Z,78.55
2023-01-04T19:46:26.701Z,79.08
2023-01-04T19:48:53.373Z,78.65
2023-01-04T19:51:20.088Z,78.74
2023-01-04T19:53:46.817Z,78.22
2023-01-04T19:56:16.973Z,79.25
2023-01-04T19:58:44.148Z,78.94
2023-01-04T20:01:15.401Z,79.24
2023-01-04T20:03:42.745Z,78.51
2023-01-04T20:06:10.390Z,78.90
2023-01-04T20:08:37.643Z,78.79
2023-01-04T20:11:04.941Z,78.32
2023-01-04T20:13:33.664Z,79.47
2023-01-04T20:16:01.113Z,79.33
2023-01-04T20:18:28.009Z,79.91
2023-01-04T20:20:56.024Z,79.38
2023-01-04T20:23:23.049Z,80.62
2023-01-04T20:25:52.682Z,79.93
2023-01-04T20:28:21.702Z,79.43
2023-01-04T20:30:48.662Z,79.18
2023-01-04T20:33:15.692Z,79.63
2023-01-04T20:35:44.556Z,79.41
2023-01-04T20:38:12.234Z,79.33
2023-01-04T20:40:39.624Z,79.46
2023-01-04T20:43:24.944Z,78.99
2023-01-04T20:45:51.917Z,79.70
2023-01-04T20:48:19.063Z,79.34
2023-01-04T20:50:45.844Z,79.81
2023-01-04T20:53:13.794Z,79.27
2023-01-04T20:55:41.921Z,79.04
2023-01-04T20:58:10.233Z,79.34
2023-01-04T21:00:37.818Z,79.04
2023-01-04T21:03:06.453Z,78.37
2023-01-04T21:05:38.362Z,78.17
2023-01-04T21:08:05.387Z,77.92
2023-01-04T21:10:32.345Z,78.04
2023-01-04T21:12:59.244Z,77.09
2023-01-04T21:15:26.183Z,77.57
2023-01-04T21:17:53.144Z,77.88
2023-01-04T21:20:21.743Z,77.40
2023-01-04T21:22:48.637Z,76.86
2023-01-04T21:25:15.517Z,77.91
2023-01-04T21:27:42.300Z,77.80
2023-01-04T21:30:09.469Z,77.56
2023-01-04T21:32:36.229Z,77.99
2023-01-04T21:35:03.196Z,77.35
2023-01-04T21:37:30.129Z,77.85
2023-01-04T21:39:57.008Z,80.04
2023-01-04T21:42:26.536Z,81.97
2023-01-04T21:44:53.251Z,83.81
2023-01-04T21:47:19.948Z,84.00
2023-01-04T21:49:50.311Z,84.45
2023-01-04T21:52:16.972Z,84.39
2023-01-04T21:54:45.889Z,84.51
2023-01-04T21:57:12.733Z,85.40
2023-01-04T21:59:39.607Z,85.91
2023-01-04T22:02:06.573Z,85.84
2023-01-04T22:04:33.654Z,85.56
2023-01-04T22:07:00.422Z,85.89
2023-01-04T22:09:27.308Z,87.21
2023-01-04T22:11:54.175Z,87.09
2023-01-04T22:14:21.260Z,85.96
2023-01-04T22:16:48.265Z,86.60
2023-01-04T22:19:15.385Z,86.61
2023-01-04T22:21:42.861Z,86.54
2023-01-04T22:24:12.120Z,86.36
2023-01-04T22:26:39.189Z,86.75
2023-01-04T22:29:06.131Z,86.43
2023-01-04T22:31:33.060Z,87.17
2023-01-04T22:33:59.957Z,87.73
2023-01-04T22:36:26.996Z,87.39
2023-01-04T22:38:55.693Z,86.98
2023-01-04T22:41:25.285Z,88.47
2023-01-04T22:43:56.534Z,88.58
2023-01-04T22:46:23.888Z,88.51
2023-01-04T22:48:50.814Z,89.15
2023-01-04T22:51:19.137Z,89.57
2023-01-04T22:53:46.105Z,90.16
2023-01-04T22:56:19.375Z,89.92
2023-01-04T22:58:52.419Z,91.14
2023-01-04T23:01:23.578Z,91.12
2023-01-04T23:03:52.048Z,91.11
2023-01-04T23:06:20.363Z,90.51
2023-01-04T23:08:47.194Z,90.12
2023-01-04T23:11:19.112Z,89.81
2023-01-04T23:13:45.920Z,89.90
2023-01-04T23:16:14.836Z,89.02
2023-01-04T23:18:42.168Z,89.20
2023-01-04T23:21:09.733Z,89.49
2023-01-04T23:23:36.666Z,89.06
2023-01-04T23:26:14.495Z,88.39
2023-01-04T23:28:41.928Z,88.28
2023-01-04T23:31:11.043Z,88.70
2023-01-04T23:33:37.840Z,89.10
2023-01-04T23:36:13.414Z,88.35
2023-01-04T23:38:41.114Z,88.08
2023-01-04T23:41:08.313Z,88.87
2023-01-04T23:43:36.985Z,88.40
2023-01-04T23:46:14.667Z,88.42
2023-01-04T23:48:42.130Z,87.76
2023-01-04T23:51:09.255Z,87.19
2023-01-04T23:53:36.152Z,87.46
2023-01-04T23:56:21.094Z,87.42
2023-01-04T23:58:47.856Z,86.92
